Muskoka Airport

Airport
ICAO code: 
CYQA
Summary
ICAO Region: 
NAM
Territory: 
Location: 
Muskoka, Ontario, Canada,
Elevation: 
925 ft
Coordinates: 
Aerial View: 
44° 58' 6.586" N, 79° 18' 25.856" W
Metar
Observation
CYQA 291400Z AUTO 00000KT 9SM BKN048 M10/M11 A2998 RMK SLP171
Station
Muskoka, Ont.
Date/Time
2021-11-29 14:00:00
Wind direction
Wind speed
00 kts
Lowest cloud amount
broken clouds
Temperature
-10°C
Dew point
-11°C
Humidity
92%
Weather condition
n/a

Description

Regional airport in central Ontario Canada, primarily used by general aviation traffic.

Climatology

Humid continental climate (Köppen climate classification Dfa) - characterized by four seasons: cold, windy, snowy winters, mild springs, hot, humid summers, and crisp and relatively short autumns. Precipitation reaches its lowest in January and February and peaks in summer and latter half of spring.

Runways

Designator Length Width Surface Rops
9/27 664 30 GRS No/No
18/36 1829 46 ASP Yes/Yes
Airport map: 
Aerial View: 

SKYbrary Partners:

Safety knowledge contributed by: